Startown, North Carolina
Current Conditions -  °F | °C
As of 1:53 PM on Thursday 30 Oct 2014 (Local Time) from KHKY Reporting Station
Haze Haze  
Wind Chill: 62°   Ceiling: Unl
Heat Index: 62°   Visibility: 5mi
Dew Point: 36°   Wind: 0mph
Humidity: 38%   Direction: NA
Pressure: 30.02"   Gusts: NA
Location:  35.6271°N, 81.2599°W
Report Text: KHKY 301753Z 00000KT 5SM HZ CLR 17/02 A3002 RMK AO2 SLP152 T01670022 10172 20050 58021
Loading
Personal Weather Stations






























Interactive Weather Map
Tropical Storm Tracking
New forecast layout! Learn more

10-Day Weather Forecast

Advertisements
Track Severe Weather on mobile